Time;durP1;ratioP1;P1;durP2;ratioP2;P2;SDS_P1;SDS_P2;PMS_P1;PMS_P2;Temp;Humidity;BMP_temperature;BMP_pressure;BME280_temperature;BME280_humidity;BME280_pressure;Samples;Min_cycle;Max_cycle;Signal;HPM_P1;HPM_P2
2021/05/10 00:27:18;;;;;;;;;;;;;;;;;;4344382;28;20083;-66
2021/05/10 00:29:44;;;;;;;14.10;2.58;;;;;;;;;;4150041;34;20405;-66
2021/05/10 00:32:09;;;;;;;5.00;2.00;;;;;;;;;;4149581;34;20142;-66
2021/05/10 00:34:35;;;;;;;11.02;2.90;;;;;;;;;;4149822;34;20134;-66
2021/05/10 00:37:01;;;;;;;6.65;2.67;;;;;;;;;;4149735;34;20122;-66
2021/05/10 00:39:27;;;;;;;7.00;2.50;;;;;;;;;;4149776;34;20134;-66
2021/05/10 00:41:54;;;;;;;9.45;2.87;;;;;;;;;;4149942;34;20110;-66
2021/05/10 00:44:20;;;;;;;13.68;3.05;;;;;;;;;;4149748;34;20635;-66
2021/05/10 00:46:46;;;;;;;13.70;2.60;;;;;;;;;;4149770;34;20173;-66
2021/05/10 00:49:12;;;;;;;12.68;2.58;;;;;;;;;;4137242;34;20559;-66
2021/05/10 00:51:38;;;;;;;9.45;2.50;;;;;;;;;;4137220;34;20134;-66
2021/05/10 00:54:04;;;;;;;12.57;2.78;;;;;;;;;;4149694;34;20135;-66
2021/05/10 00:56:30;;;;;;;5.12;2.55;;;;;;;;;;4149849;34;20126;-65
2021/05/10 00:58:56;;;;;;;8.82;2.97;;;;;;;;;;4127081;34;20148;-65
2021/05/10 01:01:21;;;;;;;8.02;2.55;;;;;;;;;;4139234;34;20504;-66
2021/05/10 01:03:49;;;;;;;9.55;2.80;;;;;;;;;;4151725;34;20520;-66
2021/05/10 01:06:16;;;;;;;8.27;2.87;;;;;;;;;;4139304;34;20120;-65
2021/05/10 01:08:42;;;;;;;14.25;2.45;;;;;;;;;;4151569;34;20121;-65
2021/05/10 01:11:08;;;;;;;16.67;3.10;;;;;;;;;;4151704;34;20134;-65
2021/05/10 01:13:34;;;;;;;16.20;3.12;;;;;;;;;;4151605;34;20133;-66
2021/05/10 01:16:00;;;;;;;7.57;2.20;;;;;;;;;;4139380;34;20142;-66
2021/05/10 01:18:25;;;;;;;5.47;2.55;;;;;;;;;;4139070;34;20098;-66
2021/05/10 01:20:51;;;;;;;12.02;3.00;;;;;;;;;;4139012;34;20115;-66
2021/05/10 01:23:17;;;;;;;4.10;2.30;;;;;;;;;;4151799;34;20150;-66
2021/05/10 01:25:43;;;;;;;8.93;2.67;;;;;;;;;;4151366;34;20118;-66
2021/05/10 01:28:09;;;;;;;10.65;2.75;;;;;;;;;;4151408;34;20211;-66
2021/05/10 01:30:37;;;;;;;9.45;2.42;;;;;;;;;;4151656;34;20131;-66
2021/05/10 01:33:04;;;;;;;8.07;3.05;;;;;;;;;;4151541;34;20110;-66
2021/05/10 01:35:37;;;;;;;9.23;2.75;;;;;;;;;;4151362;34;20190;-66
2021/05/10 01:38:03;;;;;;;6.15;2.53;;;;;;;;;;4151706;34;20166;-66
2021/05/10 01:40:29;;;;;;;7.20;2.65;;;;;;;;;;4151192;34;20220;-66
2021/05/10 01:42:56;;;;;;;12.25;3.10;;;;;;;;;;4151349;34;20147;-66
2021/05/10 01:45:22;;;;;;;10.63;3.75;;;;;;;;;;4151356;34;20580;-66
2021/05/10 01:47:48;;;;;;;6.80;3.05;;;;;;;;;;4151151;34;20126;-66
2021/05/10 01:50:18;;;;;;;11.18;3.17;;;;;;;;;;4138742;34;20129;-66
2021/05/10 01:52:45;;;;;;;5.72;2.50;;;;;;;;;;4151477;34;20122;-66
2021/05/10 01:55:11;;;;;;;5.80;2.60;;;;;;;;;;4151321;34;20114;-66
2021/05/10 01:57:37;;;;;;;11.43;2.67;;;;;;;;;;4138939;34;20109;-66
2021/05/10 02:00:11;;;;;;;11.63;3.03;;;;;;;;;;4151464;34;20535;-66
2021/05/10 02:02:37;;;;;;;7.90;2.58;;;;;;;;;;4151146;34;20114;-66
2021/05/10 02:05:21;;;;;;;6.47;2.45;;;;;;;;;;4138841;34;20135;-66
2021/05/10 02:07:51;;;;;;;9.10;2.33;;;;;;;;;;4151137;34;20137;-66
2021/05/10 02:10:19;;;;;;;8.15;2.37;;;;;;;;;;4138354;34;20542;-66
2021/05/10 02:13:16;;;;;;;6.50;2.60;;;;;;;;;;4151023;34;20155;-66
2021/05/10 02:15:43;;;;;;;4.65;2.42;;;;;;;;;;4138887;34;20142;-66
2021/05/10 02:18:10;;;;;;;9.95;2.83;;;;;;;;;;4151400;34;20102;-66
2021/05/10 02:20:37;;;;;;;9.52;2.62;;;;;;;;;;4138407;34;20535;-66
2021/05/10 02:23:06;;;;;;;7.50;2.50;;;;;;;;;;4151031;34;20115;-66
2021/05/10 02:25:34;;;;;;;6.18;2.53;;;;;;;;;;4138518;34;20123;-66
2021/05/10 02:28:00;;;;;;;6.65;2.40;;;;;;;;;;4150695;34;20444;-66
2021/05/10 02:30:27;;;;;;;7.10;2.53;;;;;;;;;;4150983;34;20137;-66
2021/05/10 02:32:53;;;;;;;11.73;2.78;;;;;;;;;;4150946;34;20111;-66
2021/05/10 02:35:20;;;;;;;7.43;3.45;;;;;;;;;;4151278;34;20615;-66
2021/05/10 02:37:46;;;;;;;10.95;2.67;;;;;;;;;;4150848;34;20507;-66
2021/05/10 02:40:12;;;;;;;4.15;2.30;;;;;;;;;;4151180;34;20184;-66
2021/05/10 02:42:38;;;;;;;8.25;2.40;;;;;;;;;;4150879;34;20135;-66
2021/05/10 02:45:05;;;;;;;6.37;2.03;;;;;;;;;;4151130;34;20468;-66
2021/05/10 02:47:31;;;;;;;9.50;2.85;;;;;;;;;;4150700;34;20446;-66
2021/05/10 02:49:57;;;;;;;8.73;2.55;;;;;;;;;;4150755;34;20138;-66
2021/05/10 02:52:23;;;;;;;12.57;2.92;;;;;;;;;;4138286;34;20202;-66
2021/05/10 02:54:49;;;;;;;7.40;2.78;;;;;;;;;;4150722;34;20134;-66
2021/05/10 02:57:16;;;;;;;5.70;2.30;;;;;;;;;;4150718;34;20098;-66
2021/05/10 02:59:43;;;;;;;8.07;2.70;;;;;;;;;;4150763;34;20200;-66
2021/05/10 03:02:08;;;;;;;8.40;2.95;;;;;;;;;;4150749;34;20138;-66
2021/05/10 03:04:34;;;;;;;8.73;2.62;;;;;;;;;;4150690;34;20452;-66
2021/05/10 03:07:00;;;;;;;4.32;2.10;;;;;;;;;;4150876;34;20121;-67
2021/05/10 03:09:26;;;;;;;6.85;2.37;;;;;;;;;;4138077;34;20123;-67
2021/05/10 03:11:52;;;;;;;11.77;2.40;;;;;;;;;;4151033;34;20187;-67
2021/05/10 03:14:18;;;;;;;10.77;2.58;;;;;;;;;;4150910;34;20198;-67
2021/05/10 03:16:44;;;;;;;10.85;2.33;;;;;;;;;;4150927;34;20551;-67
2021/05/10 03:19:10;;;;;;;6.30;2.10;;;;;;;;;;4150614;34;20130;-67
2021/05/10 03:21:37;;;;;;;8.73;2.55;;;;;;;;;;4149858;34;20127;-67
2021/05/10 03:24:05;;;;;;;8.85;2.55;;;;;;;;;;4150733;34;20521;-67
2021/05/10 03:26:31;;;;;;;5.72;2.45;;;;;;;;;;4150245;34;20111;-68
2021/05/10 03:28:57;;;;;;;4.78;2.45;;;;;;;;;;4137787;34;20128;-67
2021/05/10 03:31:23;;;;;;;4.75;2.00;;;;;;;;;;4150351;34;20574;-67
2021/05/10 03:33:49;;;;;;;4.37;2.65;;;;;;;;;;4150522;34;20570;-66
2021/05/10 03:36:15;;;;;;;5.37;2.12;;;;;;;;;;4150426;34;20110;-66
2021/05/10 03:38:40;;;;;;;8.10;2.85;;;;;;;;;;4137825;34;20157;-66
2021/05/10 03:41:06;;;;;;;11.45;3.15;;;;;;;;;;4150430;34;20202;-67
2021/05/10 03:43:32;;;;;;;12.57;2.47;;;;;;;;;;4150367;34;20130;-67
2021/05/10 03:45:58;;;;;;;7.97;2.50;;;;;;;;;;4150393;34;20119;-67
2021/05/10 03:48:24;;;;;;;5.45;2.40;;;;;;;;;;4150225;34;20142;-68
2021/05/10 03:50:50;;;;;;;16.20;2.90;;;;;;;;;;4150363;34;20107;-67
2021/05/10 03:53:16;;;;;;;7.22;2.40;;;;;;;;;;4150533;34;20146;-67
2021/05/10 03:55:42;;;;;;;7.78;2.37;;;;;;;;;;4150365;34;20210;-67
2021/05/10 03:58:08;;;;;;;5.15;2.17;;;;;;;;;;4150163;34;20215;-66
2021/05/10 04:00:33;;;;;;;4.05;2.10;;;;;;;;;;4150386;34;20204;-66
2021/05/10 04:03:01;;;;;;;5.75;3.45;;;;;;;;;;4150397;34;20154;-66
2021/05/10 04:10:56;;;;;;;7.03;2.55;;;;;;;;;;4149942;34;20134;-66
2021/05/10 04:16:20;;;;;;;3.83;2.42;;;;;;;;;;4148197;34;20135;-66
2021/05/10 04:18:46;;;;;;;23.12;3.53;;;;;;;;;;4140091;34;20122;-67
2021/05/10 04:21:12;;;;;;;3.78;2.53;;;;;;;;;;4149111;34;20127;-67
2021/05/10 04:23:38;;;;;;;15.73;3.22;;;;;;;;;;4150354;34;20111;-68
2021/05/10 04:26:03;;;;;;;43.30;3.72;;;;;;;;;;4148721;34;20122;-68
2021/05/10 04:28:30;;;;;;;3.85;1.95;;;;;;;;;;4148599;34;20119;-67
2021/05/10 04:30:56;;;;;;;3.90;2.37;;;;;;;;;;4148952;34;20231;-68
2021/05/10 04:33:33;;;;;;;5.20;2.47;;;;;;;;;;4149984;34;20126;-68
2021/05/10 04:35:59;;;;;;;16.25;3.03;;;;;;;;;;4149348;34;20107;-68
2021/05/10 04:38:26;;;;;;;6.12;2.42;;;;;;;;;;4138256;34;20099;-68
2021/05/10 04:40:54;;;;;;;4.50;2.40;;;;;;;;;;4150523;34;20516;-67
2021/05/10 04:43:20;;;;;;;4.35;2.60;;;;;;;;;;4139397;34;20531;-68
2021/05/10 04:45:46;;;;;;;5.47;2.40;;;;;;;;;;4149902;34;20116;-68
2021/05/10 04:48:12;;;;;;;4.85;2.37;;;;;;;;;;4149553;34;20153;-69
2021/05/10 04:50:38;;;;;;;5.78;2.30;;;;;;;;;;4149423;34;20604;-68
2021/05/10 04:53:13;;;;;;;5.45;2.70;;;;;;;;;;4149876;34;20135;-68
2021/05/10 04:55:39;;;;;;;8.55;2.75;;;;;;;;;;4137903;34;20147;-66
2021/05/10 04:58:06;;;;;;;4.15;2.30;;;;;;;;;;4138960;34;20151;-66
2021/05/10 05:00:32;;;;;;;7.00;2.55;;;;;;;;;;4151773;34;20216;-66
2021/05/10 05:02:58;;;;;;;4.47;2.45;;;;;;;;;;4151677;34;20150;-66
2021/05/10 05:05:23;;;;;;;7.97;2.12;;;;;;;;;;4151848;34;20138;-66
2021/05/10 05:07:49;;;;;;;7.85;2.40;;;;;;;;;;4138921;34;20119;-70
2021/05/10 05:10:15;;;;;;;7.50;2.60;;;;;;;;;;4151717;34;20174;-69
2021/05/10 05:12:41;;;;;;;9.88;2.75;;;;;;;;;;4151560;34;20098;-69
2021/05/10 05:15:08;;;;;;;8.85;2.45;;;;;;;;;;4164218;34;20188;-66
2021/05/10 05:17:35;;;;;;;7.35;2.92;;;;;;;;;;4165848;34;20130;-66
2021/05/10 05:20:02;;;;;;;5.62;2.10;;;;;;;;;;4164832;34;20103;-66
2021/05/10 05:22:28;;;;;;;6.75;2.60;;;;;;;;;;4165246;34;20126;-65
2021/05/10 05:24:56;;;;;;;3.80;2.10;;;;;;;;;;4164431;34;20557;-65
2021/05/10 05:27:25;;;;;;;3.05;2.20;;;;;;;;;;4164301;34;20091;-68
2021/05/10 05:29:51;;;;;;;14.18;3.62;;;;;;;;;;4145714;34;20535;-68
2021/05/10 05:32:18;;;;;;;2.58;2.37;;;;;;;;;;4154953;34;20123;-67
2021/05/10 05:34:44;;;;;;;3.83;2.80;;;;;;;;;;4152665;34;20130;-67
2021/05/10 05:37:10;;;;;;;9.15;4.32;;;;;;;;;;4152090;34;20115;-67
2021/05/10 05:39:35;;;;;;;5.55;2.60;;;;;;;;;;4151390;34;20115;-68
2021/05/10 05:42:01;;;;;;;2.37;2.17;;;;;;;;;;4151414;34;20143;-68
2021/05/10 05:44:32;;;;;;;3.37;2.00;;;;;;;;;;4138277;34;20517;-66
2021/05/10 05:47:03;;;;;;;4.07;2.80;;;;;;;;;;4151349;34;20141;-65
2021/05/10 05:49:31;;;;;;;8.32;2.33;;;;;;;;;;4139381;34;20285;-67
2021/05/10 05:51:57;;;;;;;4.12;2.03;;;;;;;;;;4151502;34;20138;-67
2021/05/10 05:54:23;;;;;;;4.72;1.95;;;;;;;;;;4151391;34;20130;-67
2021/05/10 05:56:50;;;;;;;5.32;1.87;;;;;;;;;;4151425;34;20545;-67
2021/05/10 05:59:17;;;;;;;2.65;2.10;;;;;;;;;;4151436;34;20214;-67
2021/05/10 06:01:43;;;;;;;2.22;2.00;;;;;;;;;;4151201;34;20110;-66
2021/05/10 06:04:08;;;;;;;8.88;2.22;;;;;;;;;;4151586;34;20103;-66
2021/05/10 06:06:34;;;;;;;2.40;1.73;;;;;;;;;;4151542;34;20126;-67
2021/05/10 06:09:05;;;;;;;2.25;2.00;;;;;;;;;;4138927;34;20487;-67
2021/05/10 06:11:31;;;;;;;3.22;2.15;;;;;;;;;;4151885;34;20137;-67
2021/05/10 06:13:57;;;;;;;4.55;2.42;;;;;;;;;;4152093;34;20229;-67
2021/05/10 06:16:26;;;;;;;4.07;2.25;;;;;;;;;;4151069;34;20099;-68
2021/05/10 06:18:53;;;;;;;10.02;2.67;;;;;;;;;;4138608;34;20107;-67
2021/05/10 06:21:19;;;;;;;2.72;2.40;;;;;;;;;;4138758;34;20182;-67
2021/05/10 06:23:45;;;;;;;3.15;2.60;;;;;;;;;;4150949;34;20103;-68
2021/05/10 06:26:11;;;;;;;2.75;2.05;;;;;;;;;;4138465;34;20119;-68
2021/05/10 06:28:37;;;;;;;4.70;2.20;;;;;;;;;;4150819;34;20125;-67
2021/05/10 06:31:05;;;;;;;5.65;2.10;;;;;;;;;;4150953;34;20192;-66
2021/05/10 06:33:31;;;;;;;3.62;2.33;;;;;;;;;;4151004;34;20539;-66
2021/05/10 06:35:57;;;;;;;4.55;1.95;;;;;;;;;;4150746;34;20651;-66
2021/05/10 06:38:23;;;;;;;6.80;2.35;;;;;;;;;;4151037;34;20127;-65
2021/05/10 06:40:49;;;;;;;3.15;2.25;;;;;;;;;;4150851;34;20461;-65
2021/05/10 06:43:15;;;;;;;3.65;1.90;;;;;;;;;;4151190;34;20213;-64
2021/05/10 06:45:41;;;;;;;4.05;2.15;;;;;;;;;;4150830;34;20525;-67
2021/05/10 06:48:07;;;;;;;6.32;2.20;;;;;;;;;;4138689;34;20147;-67
2021/05/10 06:50:33;;;;;;;7.28;2.97;;;;;;;;;;4152603;34;20108;-66
2021/05/10 06:52:59;;;;;;;13.80;2.80;;;;;;;;;;4150951;34;20138;-67
2021/05/10 06:55:25;;;;;;;5.90;2.55;;;;;;;;;;4150966;34;20567;-67
2021/05/10 06:57:51;;;;;;;2.40;1.90;;;;;;;;;;4150852;34;20095;-67
2021/05/10 07:00:18;;;;;;;4.10;2.00;;;;;;;;;;4147781;34;20541;-68
2021/05/10 07:02:44;;;;;;;3.35;2.03;;;;;;;;;;4138649;34;20221;-67
2021/05/10 07:05:10;;;;;;;1.80;1.20;;;;;;;;;;4150871;34;20218;-67
2021/05/10 07:07:36;;;;;;;8.07;2.05;;;;;;;;;;4151482;34;20120;-66
2021/05/10 07:10:03;;;;;;;2.00;1.87;;;;;;;;;;4150864;34;20107;-67
2021/05/10 07:12:29;;;;;;;1.92;1.35;;;;;;;;;;4150919;34;20108;-67
2021/05/10 07:14:56;;;;;;;2.62;1.65;;;;;;;;;;4151007;34;20239;-68
2021/05/10 07:17:22;;;;;;;3.92;1.73;;;;;;;;;;4138917;34;20475;-67
2021/05/10 07:19:47;;;;;;;2.87;1.90;;;;;;;;;;4151174;34;20131;-67
2021/05/10 07:22:13;;;;;;;1.70;1.27;;;;;;;;;;4150878;34;20119;-68
2021/05/10 07:24:39;;;;;;;5.87;2.20;;;;;;;;;;4147449;34;20110;-68
2021/05/10 07:27:05;;;;;;;1.75;1.65;;;;;;;;;;4149941;34;20106;-67
2021/05/10 07:29:33;;;;;;;5.70;2.37;;;;;;;;;;4149760;34;20129;-67
2021/05/10 07:31:59;;;;;;;1.20;1.15;;;;;;;;;;4150576;34;20097;-68
2021/05/10 07:34:25;;;;;;;9.35;2.78;;;;;;;;;;4150377;34;20138;-68
2021/05/10 07:36:51;;;;;;;1.60;1.48;;;;;;;;;;4150332;34;20528;-68
2021/05/10 07:39:17;;;;;;;7.72;3.25;;;;;;;;;;4150299;34;20312;-68
2021/05/10 07:41:43;;;;;;;3.37;1.73;;;;;;;;;;4137716;34;20121;-68
2021/05/10 07:44:09;;;;;;;3.22;2.00;;;;;;;;;;4150030;34;20134;-68
2021/05/10 07:46:35;;;;;;;2.00;1.80;;;;;;;;;;4149879;34;20138;-68
2021/05/10 07:49:01;;;;;;;2.08;1.73;;;;;;;;;;4150304;34;20130;-68
2021/05/10 07:51:27;;;;;;;6.22;1.80;;;;;;;;;;4137432;34;20107;-68
2021/05/10 07:53:54;;;;;;;2.33;1.58;;;;;;;;;;4150306;34;20115;-68
2021/05/10 07:56:19;;;;;;;2.75;2.00;;;;;;;;;;4150049;34;20115;-68
2021/05/10 07:58:47;;;;;;;3.62;2.20;;;;;;;;;;4137767;34;20134;-68
2021/05/10 08:01:13;;;;;;;8.32;1.83;;;;;;;;;;4149935;34;20107;-67
2021/05/10 08:03:40;;;;;;;8.85;2.70;;;;;;;;;;4137819;34;20142;-66
2021/05/10 08:06:07;;;;;;;3.35;1.92;;;;;;;;;;4149865;34;20186;-67
2021/05/10 08:08:34;;;;;;;3.25;2.10;;;;;;;;;;4149977;34;20119;-67
2021/05/10 08:11:02;;;;;;;3.30;1.77;;;;;;;;;;4150076;34;20587;-67
2021/05/10 08:13:28;;;;;;;3.72;1.85;;;;;;;;;;4150051;34;20098;-68
2021/05/10 08:15:53;;;;;;;13.88;2.70;;;;;;;;;;4149439;34;20126;-66
2021/05/10 08:18:19;;;;;;;2.87;1.73;;;;;;;;;;4149342;34;20127;-67
2021/05/10 08:20:45;;;;;;;5.82;2.20;;;;;;;;;;4149959;34;20238;-66
2021/05/10 08:23:12;;;;;;;1.60;1.50;;;;;;;;;;4150140;34;20214;-67
2021/05/10 08:25:38;;;;;;;6.50;2.22;;;;;;;;;;4149676;34;20525;-68
2021/05/10 08:28:04;;;;;;;6.68;1.98;;;;;;;;;;4150003;34;20151;-66
2021/05/10 08:30:30;;;;;;;9.05;3.00;;;;;;;;;;4150141;34;20103;-68
2021/05/10 08:32:58;;;;;;;7.32;1.95;;;;;;;;;;4149757;34;20149;-67
2021/05/10 08:35:27;;;;;;;2.92;1.90;;;;;;;;;;4150185;34;20131;-68
2021/05/10 08:37:53;;;;;;;11.15;2.33;;;;;;;;;;4149847;34;20159;-67
2021/05/10 08:40:18;;;;;;;4.50;2.50;;;;;;;;;;4149786;34;20126;-67
2021/05/10 08:42:44;;;;;;;8.38;3.05;;;;;;;;;;4149710;34;20483;-66
2021/05/10 08:45:20;;;;;;;7.18;2.67;;;;;;;;;;4149839;34;20142;-66
2021/05/10 08:47:47;;;;;;;8.68;3.08;;;;;;;;;;4138054;34;20182;-67
2021/05/10 08:50:14;;;;;;;9.13;2.47;;;;;;;;;;4149985;34;20202;-67
2021/05/10 08:52:43;;;;;;;6.82;2.80;;;;;;;;;;4149644;34;20601;-68
2021/05/10 08:55:16;;;;;;;11.55;2.50;;;;;;;;;;4126262;34;20416;-68
2021/05/10 08:57:42;;;;;;;4.78;2.15;;;;;;;;;;4149861;34;20610;-67
2021/05/10 09:00:11;;;;;;;6.60;2.22;;;;;;;;;;4137275;34;20216;-67
2021/05/10 09:02:37;;;;;;;5.62;1.87;;;;;;;;;;4149573;34;20107;-67
2021/05/10 09:05:16;;;;;;;3.85;2.22;;;;;;;;;;4149869;34;20091;-67
2021/05/10 09:07:42;;;;;;;9.57;2.90;;;;;;;;;;4149375;34;20127;-66
2021/05/10 09:10:12;;;;;;;2.65;2.03;;;;;;;;;;4149768;34;20131;-66
2021/05/10 09:12:58;;;;;;;6.00;2.28;;;;;;;;;;4149469;34;20141;-66
2021/05/10 09:15:27;;;;;;;6.03;2.65;;;;;;;;;;4149719;34;20463;-67
2021/05/10 09:17:55;;;;;;;9.20;3.35;;;;;;;;;;4149475;34;20455;-68
2021/05/10 09:20:25;;;;;;;12.15;3.00;;;;;;;;;;4150954;34;20115;-67
2021/05/10 09:22:59;;;;;;;12.65;6.35;;;;;;;;;;4139197;34;20106;-66
2021/05/10 09:25:32;;;;;;;12.15;6.62;;;;;;;;;;4151775;34;20259;-67
2021/05/10 09:28:15;;;;;;;13.23;5.60;;;;;;;;;;4151180;34;20135;-68
2021/05/10 09:30:43;;;;;;;5.90;4.68;;;;;;;;;;4151508;34;20218;-68
2021/05/10 09:33:15;;;;;;;6.60;4.07;;;;;;;;;;4151345;34;20103;-68
2021/05/10 09:35:41;;;;;;;11.98;4.07;;;;;;;;;;4151386;34;20445;-68
2021/05/10 09:38:07;;;;;;;5.45;3.33;;;;;;;;;;4150167;34;20118;-68
2021/05/10 09:40:40;;;;;;;7.28;3.85;;;;;;;;;;4151107;34;20096;-68
2021/05/10 09:43:08;;;;;;;5.70;3.00;;;;;;;;;;4151325;34;20288;-67
2021/05/10 09:45:49;;;;;;;4.95;2.53;;;;;;;;;;4151176;34;20119;-67
2021/05/10 09:48:16;;;;;;;8.82;3.12;;;;;;;;;;4151462;34;20118;-67
2021/05/10 09:51:15;;;;;;;3.65;2.22;;;;;;;;;;4151655;34;20115;-67
2021/05/10 09:53:47;;;;;;;7.45;2.60;;;;;;;;;;4148561;34;20119;-65
2021/05/10 09:56:16;;;;;;;7.80;3.12;;;;;;;;;;4151496;34;20131;-65
2021/05/10 09:58:44;;;;;;;6.55;2.83;;;;;;;;;;4151261;34;20115;-64
2021/05/10 10:01:10;;;;;;;9.75;2.42;;;;;;;;;;4151272;34;20119;-65
2021/05/10 10:03:42;;;;;;;4.55;2.90;;;;;;;;;;4151410;34;20139;-65
2021/05/10 10:06:18;;;;;;;6.72;2.30;;;;;;;;;;4151211;34;20223;-66
2021/05/10 10:08:49;;;;;;;4.53;2.42;;;;;;;;;;4138777;34;20107;-66
2021/05/10 10:11:19;;;;;;;5.43;2.30;;;;;;;;;;4138882;34;20118;-66
2021/05/10 10:13:46;;;;;;;3.97;2.08;;;;;;;;;;4151070;34;20532;-67
2021/05/10 10:16:12;;;;;;;6.18;2.47;;;;;;;;;;4138709;34;20131;-66
2021/05/10 10:18:42;;;;;;;5.95;2.00;;;;;;;;;;4127363;34;20235;-66
2021/05/10 10:21:09;;;;;;;7.45;2.40;;;;;;;;;;4150798;34;20134;-66
2021/05/10 10:23:36;;;;;;;3.65;2.12;;;;;;;;;;4151081;34;20218;-65
2021/05/10 10:26:06;;;;;;;9.40;2.78;;;;;;;;;;4150839;34;20190;-65
2021/05/10 10:28:33;;;;;;;5.75;3.08;;;;;;;;;;4151101;34;20178;-65
2021/05/10 10:31:13;;;;;;;7.55;2.12;;;;;;;;;;4138061;34;20123;-64
2021/05/10 10:33:51;;;;;;;12.93;4.22;;;;;;;;;;4138736;34;20137;-65
2021/05/10 10:36:22;;;;;;;4.07;2.22;;;;;;;;;;4138345;34;20535;-66
2021/05/10 10:39:08;;;;;;;5.37;2.10;;;;;;;;;;4138490;34;20119;-66
2021/05/10 10:41:35;;;;;;;2.00;1.80;;;;;;;;;;4140217;34;20114;-66
2021/05/10 10:44:27;;;;;;;2.08;1.62;;;;;;;;;;4149074;34;20107;-66
2021/05/10 10:46:53;;;;;;;7.82;2.30;;;;;;;;;;4152568;34;20115;-67
2021/05/10 10:49:30;;;;;;;5.18;2.20;;;;;;;;;;4154113;34;20223;-66
2021/05/10 10:51:56;;;;;;;4.30;2.40;;;;;;;;;;4155397;34;20212;-66
2021/05/10 10:54:26;;;;;;;4.62;2.35;;;;;;;;;;4154079;34;20137;-66
2021/05/10 10:57:00;;;;;;;4.10;1.95;;;;;;;;;;4139785;34;20103;-65
2021/05/10 10:59:37;;;;;;;9.40;2.33;;;;;;;;;;4138915;34;20149;-65
2021/05/10 11:02:23;;;;;;;6.62;1.92;;;;;;;;;;4151378;34;20111;-66
2021/05/10 11:05:16;;;;;;;3.85;2.17;;;;;;;;;;4151621;34;20117;-66
2021/05/10 11:08:04;;;;;;;5.30;1.90;;;;;;;;;;4151234;34;20139;-65
2021/05/10 11:10:50;;;;;;;10.38;2.55;;;;;;;;;;4150735;34;20099;-65
2021/05/10 11:13:32;;;;;;;8.15;2.47;;;;;;;;;;4150831;34;20128;-66
2021/05/10 11:16:45;;;;;;;4.22;2.30;;;;;;;;;;4150909;34;20566;-66
2021/05/10 11:19:41;;;;;;;7.12;2.58;;;;;;;;;;4150596;34;20135;-66
2021/05/10 11:22:26;;;;;;;;;;;;;;;;;;4151156;34;20192;-65
2021/05/10 11:24:52;;;;;;;6.57;2.75;;;;;;;;;;4151008;34;20487;-65
2021/05/10 11:27:25;;;;;;;5.90;2.22;;;;;;;;;;4150930;34;20108;-67
2021/05/10 11:29:51;;;;;;;4.25;2.95;;;;;;;;;;4150720;34;20107;-66
2021/05/10 11:32:21;;;;;;;4.30;2.70;;;;;;;;;;4138141;34;20130;-66
2021/05/10 11:34:48;;;;;;;3.25;2.50;;;;;;;;;;4150784;34;20579;-66
2021/05/10 11:37:24;;;;;;;2.72;2.03;;;;;;;;;;4149969;34;20127;-67
2021/05/10 11:39:52;;;;;;;3.03;2.28;;;;;;;;;;4136411;34;20113;-66
2021/05/10 11:42:18;;;;;;;6.87;2.58;;;;;;;;;;4148208;34;20127;-66
2021/05/10 11:44:45;;;;;;;3.90;2.80;;;;;;;;;;4149044;34;20561;-66
2021/05/10 11:47:14;;;;;;;2.67;2.28;;;;;;;;;;4149054;34;20511;-67
2021/05/10 11:49:50;;;;;;;3.97;2.35;;;;;;;;;;4149086;34;20547;-66
2021/05/10 11:52:20;;;;;;;4.97;2.30;;;;;;;;;;4137041;34;20210;-68
2021/05/10 11:54:50;;;;;;;6.60;2.33;;;;;;;;;;4150447;34;20209;-67
2021/05/10 11:57:28;;;;;;;1.40;1.30;;;;;;;;;;4150326;34;20544;-67
2021/05/10 12:02:23;;;;;;;6.18;1.92;;;;;;;;;;4150366;34;20569;-66
2021/05/10 12:04:51;;;;;;;3.78;2.10;;;;;;;;;;4150097;34;20103;-67
2021/05/10 12:07:17;;;;;;;3.08;2.03;;;;;;;;;;4150132;34;20119;-65
2021/05/10 12:09:53;;;;;;;3.35;2.05;;;;;;;;;;4150016;34;20130;-66
2021/05/10 12:12:18;;;;;;;;;;;;;;;;;;4150481;34;20142;-67
2021/05/10 12:14:49;;;;;;;5.25;3.15;;;;;;;;;;4150140;34;20091;-67
2021/05/10 12:17:17;;;;;;;2.92;1.67;;;;;;;;;;4150027;34;20113;-65
2021/05/10 12:20:00;;;;;;;4.53;2.30;;;;;;;;;;4150169;34;20126;-66
2021/05/10 12:22:47;;;;;;;5.97;2.20;;;;;;;;;;4150041;34;20190;-66
2021/05/10 12:25:32;;;;;;;4.93;2.40;;;;;;;;;;4150148;34;20445;-67
2021/05/10 12:28:12;;;;;;;6.15;2.75;;;;;;;;;;4149830;34;20118;-66
2021/05/10 12:30:45;;;;;;;7.47;2.78;;;;;;;;;;4150049;34;20106;-68
2021/05/10 12:33:24;;;;;;;3.80;2.28;;;;;;;;;;4142681;34;20103;-65
2021/05/10 12:36:02;;;;;;;6.05;2.22;;;;;;;;;;4138994;34;20133;-66
2021/05/10 12:38:38;;;;;;;4.87;2.20;;;;;;;;;;4150326;34;20111;-66
2021/05/10 12:41:07;;;;;;;5.15;2.50;;;;;;;;;;4150234;34;20110;-68
2021/05/10 12:43:49;;;;;;;6.12;2.20;;;;;;;;;;4137528;34;20103;-67
2021/05/10 12:46:20;;;;;;;4.05;2.50;;;;;;;;;;4147938;34;20528;-68
2021/05/10 12:48:58;;;;;;;3.92;2.55;;;;;;;;;;4146026;34;20192;-68
2021/05/10 12:51:36;;;;;;;11.57;3.45;;;;;;;;;;4149226;34;20107;-66
2021/05/10 12:54:13;;;;;;;9.43;3.97;;;;;;;;;;4137442;34;20121;-67
2021/05/10 12:56:43;;;;;;;7.12;4.00;;;;;;;;;;4151752;34;20192;-66
2021/05/10 12:59:09;;;;;;;7.62;4.93;;;;;;;;;;4151904;34;20561;-66
2021/05/10 13:01:36;;;;;;;5.90;3.90;;;;;;;;;;4151808;34;20188;-66
2021/05/10 13:04:07;;;;;;;6.78;4.53;;;;;;;;;;4152187;34;20119;-66
2021/05/10 13:06:37;;;;;;;5.95;4.00;;;;;;;;;;4152019;34;20192;-66
2021/05/10 13:09:22;;;;;;;5.72;2.87;;;;;;;;;;4151998;34;20205;-66
2021/05/10 13:11:54;;;;;;;3.58;2.80;;;;;;;;;;4151894;34;20114;-66
2021/05/10 13:14:36;;;;;;;6.55;2.67;;;;;;;;;;4151978;34;20518;-66
2021/05/10 13:17:22;;;;;;;2.17;1.98;;;;;;;;;;4148405;34;20216;-66
2021/05/10 13:31:10;;;;;;;5.95;3.00;;;;;;;;;;4148408;34;20150;-69
2021/05/10 13:36:31;;;;;;;9.50;3.05;;;;;;;;;;4151970;34;20668;-68
2021/05/10 13:38:59;;;;;;;4.10;2.58;;;;;;;;;;4151922;34;20107;-65
2021/05/10 13:41:29;;;;;;;7.78;1.60;;;;;;;;;;4151974;34;20123;-66
2021/05/10 13:44:00;;;;;;;5.57;2.92;;;;;;;;;;4152237;34;20166;-66
2021/05/10 13:46:27;;;;;;;1.92;1.75;;;;;;;;;;4152509;34;20123;-65
2021/05/10 13:48:52;;;;;;;10.90;2.92;;;;;;;;;;4140003;34;20181;-65
2021/05/10 13:51:18;;;;;;;3.50;2.42;;;;;;;;;;4151926;34;20103;-65
2021/05/10 13:53:45;;;;;;;9.68;2.37;;;;;;;;;;4152059;34;20218;-65
2021/05/10 13:56:11;;;;;;;5.57;2.60;;;;;;;;;;4151273;34;20099;-65
2021/05/10 13:58:40;;;;;;;10.43;3.67;;;;;;;;;;4151265;34;20211;-66
2021/05/10 14:01:06;;;;;;;9.93;3.78;;;;;;;;;;4151125;34;20120;-66
2021/05/10 14:03:31;;;;;;;6.07;3.53;;;;;;;;;;4151702;34;20200;-66
2021/05/10 14:05:57;;;;;;;4.05;3.17;;;;;;;;;;4150723;34;20146;-66
2021/05/10 14:08:23;;;;;;;5.57;3.70;;;;;;;;;;4150486;34;20681;-66
2021/05/10 14:10:50;;;;;;;3.25;2.42;;;;;;;;;;4151212;34;20131;-66
2021/05/10 14:13:18;;;;;;;8.98;4.85;;;;;;;;;;4151162;34;20118;-66
2021/05/10 14:15:44;;;;;;;5.50;3.97;;;;;;;;;;4151325;34;20188;-66
2021/05/10 14:18:13;;;;;;;10.10;3.83;;;;;;;;;;4150873;34;20106;-65
2021/05/10 14:23:24;;;;;;;4.60;2.92;;;;;;;;;;4140555;34;20177;-65
2021/05/10 14:25:50;;;;;;;7.85;4.03;;;;;;;;;;4138267;34;20224;-65
2021/05/10 14:28:16;;;;;;;1.90;1.70;;;;;;;;;;4150890;34;20122;-66
2021/05/10 14:30:42;;;;;;;5.93;2.90;;;;;;;;;;4151037;34;20111;-65
2021/05/10 14:33:08;;;;;;;3.28;2.92;;;;;;;;;;4150918;34;20215;-65
2021/05/10 14:35:33;;;;;;;6.00;3.92;;;;;;;;;;4151130;34;20202;-65
2021/05/10 14:38:00;;;;;;;5.47;3.85;;;;;;;;;;4151172;34;20621;-65
2021/05/10 14:40:26;;;;;;;4.07;3.20;;;;;;;;;;4150964;34;20115;-65
2021/05/10 14:42:51;;;;;;;4.10;3.55;;;;;;;;;;4150998;34;20226;-65
2021/05/10 14:45:17;;;;;;;4.35;3.95;;;;;;;;;;4151012;34;20202;-66
2021/05/10 14:47:43;;;;;;;1.95;1.75;;;;;;;;;;4151158;34;20107;-66
2021/05/10 14:50:09;;;;;;;6.07;3.15;;;;;;;;;;4150839;34;20549;-65
2021/05/10 14:52:35;;;;;;;3.65;2.70;;;;;;;;;;4151161;34;20100;-66
2021/05/10 14:55:01;;;;;;;5.95;3.60;;;;;;;;;;4150964;34;20312;-66
2021/05/10 14:57:29;;;;;;;7.50;3.45;;;;;;;;;;4151083;34;20239;-66
2021/05/10 14:59:55;;;;;;;3.17;2.58;;;;;;;;;;4138734;34;20115;-65
2021/05/10 15:02:21;;;;;;;6.30;3.65;;;;;;;;;;4150841;34;20110;-66
2021/05/10 15:04:47;;;;;;;4.97;2.20;;;;;;;;;;4150737;34;20538;-65
2021/05/10 15:07:14;;;;;;;10.75;3.65;;;;;;;;;;4150728;34;20392;-66
2021/05/10 15:09:40;;;;;;;5.28;3.30;;;;;;;;;;4150891;34;20207;-65
2021/05/10 15:12:07;;;;;;;2.58;2.22;;;;;;;;;;4147741;34;20211;-65
2021/05/10 15:14:34;;;;;;;4.53;3.70;;;;;;;;;;4150662;34;20527;-65
2021/05/10 15:17:00;;;;;;;5.50;3.70;;;;;;;;;;4147123;34;20127;-62
2021/05/10 15:19:26;;;;;;;8.40;3.55;;;;;;;;;;4137001;34;20150;-64
2021/05/10 15:21:52;;;;;;;5.47;3.55;;;;;;;;;;4137391;34;20138;-63
2021/05/10 15:24:18;;;;;;;4.65;2.97;;;;;;;;;;4137236;34;20135;-64
2021/05/10 15:26:45;;;;;;;5.22;4.03;;;;;;;;;;4137183;34;20602;-64
2021/05/10 15:29:16;;;;;;;6.25;3.42;;;;;;;;;;4149314;34;20158;-65
2021/05/10 15:31:42;;;;;;;7.65;3.12;;;;;;;;;;4149757;34;20099;-67
2021/05/10 15:34:08;;;;;;;3.72;2.97;;;;;;;;;;4150463;34;20127;-66
2021/05/10 15:36:34;;;;;;;7.00;4.12;;;;;;;;;;4150188;34;20096;-67
2021/05/10 15:39:00;;;;;;;4.43;2.67;;;;;;;;;;4150267;34;20126;-67
2021/05/10 15:41:26;;;;;;;4.20;2.85;;;;;;;;;;4150222;34;20215;-66
2021/05/10 15:43:52;;;;;;;7.80;3.70;;;;;;;;;;4150050;34;20239;-66
2021/05/10 15:46:18;;;;;;;5.53;2.60;;;;;;;;;;4149715;34;20239;-67